createdAt,value
2017-07-01T00:00:43.324Z,2.15
2017-07-01T00:03:11.623Z,1.65
2017-07-01T00:05:39.921Z,1.27
2017-07-01T00:08:08.220Z,1.30
2017-07-01T00:10:36.493Z,1.10
2017-07-01T00:13:04.785Z,1.40
2017-07-01T00:15:33.061Z,1.23
2017-07-01T00:18:01.354Z,1.60
2017-07-01T00:20:29.632Z,2.33
2017-07-01T00:22:57.920Z,1.42
2017-07-01T00:25:26.199Z,1.45
2017-07-01T00:27:54.470Z,1.40
2017-07-01T00:30:22.763Z,1.30
2017-07-01T00:32:51.042Z,1.42
2017-07-01T00:35:19.390Z,1.67
2017-07-01T00:37:47.677Z,1.23
2017-07-01T00:40:15.958Z,1.60
2017-07-01T00:42:44.240Z,1.48
2017-07-01T00:45:12.551Z,1.30
2017-07-01T00:47:41.597Z,1.23
2017-07-01T00:50:09.951Z,1.20
2017-07-01T00:52:38.258Z,1.48
2017-07-01T00:55:06.532Z,1.25
2017-07-01T00:57:34.849Z,1.30
2017-07-01T01:02:46.114Z,1.42
2017-07-01T01:05:14.416Z,1.40
2017-07-01T01:07:43.480Z,1.50
2017-07-01T01:10:11.748Z,1.50
2017-07-01T01:12:40.030Z,1.27
2017-07-01T01:15:08.303Z,1.25
2017-07-01T01:17:36.589Z,1.20
2017-07-01T01:20:04.851Z,1.50
2017-07-01T01:22:33.167Z,1.40
2017-07-01T01:25:02.211Z,1.17
2017-07-01T01:27:30.493Z,1.30
2017-07-01T01:29:58.834Z,1.10
2017-07-01T01:32:27.136Z,1.20
2017-07-01T01:34:55.436Z,1.20
2017-07-01T01:37:23.707Z,1.23
2017-07-01T01:39:51.995Z,1.10
2017-07-01T01:42:20.270Z,1.30
2017-07-01T01:44:48.571Z,1.40
2017-07-01T01:47:16.843Z,1.40
2017-07-01T01:49:45.130Z,1.48
2017-07-01T01:52:14.196Z,1.48
2017-07-01T01:54:42.479Z,1.45
2017-07-01T01:57:10.772Z,1.20
2017-07-01T01:59:39.044Z,1.12
2017-07-01T02:02:07.359Z,0.90
2017-07-01T02:04:35.623Z,1.20
2017-07-01T02:07:04.682Z,1.10
2017-07-01T02:09:32.960Z,1.00
2017-07-01T02:12:04.987Z,1.12
2017-07-01T02:14:33.262Z,1.10
2017-07-01T02:17:29.247Z,1.12
2017-07-01T02:19:57.519Z,1.10
2017-07-01T02:22:38.163Z,1.08
2017-07-01T02:25:24.198Z,1.33
2017-07-01T02:27:52.513Z,1.10
2017-07-01T02:30:20.783Z,1.30
2017-07-01T02:33:01.405Z,1.20
2017-07-01T02:35:29.686Z,1.10
2017-07-01T02:37:57.976Z,1.20
2017-07-01T02:40:27.035Z,1.00
2017-07-01T02:42:55.307Z,1.10
2017-07-01T02:45:54.162Z,1.00
2017-07-01T02:48:26.946Z,1.42
2017-07-01T02:50:58.079Z,1.05
2017-07-01T02:53:28.034Z,1.10
2017-07-01T02:56:27.563Z,1.25
2017-07-01T02:59:05.508Z,1.23
2017-07-01T03:01:33.782Z,1.30
2017-07-01T03:04:02.086Z,1.10
2017-07-01T03:06:30.371Z,1.10
2017-07-01T03:08:58.649Z,1.00
2017-07-01T03:11:26.935Z,1.10
2017-07-01T03:13:55.216Z,1.17
2017-07-01T03:16:23.508Z,1.00
2017-07-01T03:18:51.784Z,1.10
2017-07-01T03:21:20.095Z,1.10
2017-07-01T03:23:49.135Z,1.27
2017-07-01T03:26:17.421Z,1.00
2017-07-01T03:28:45.688Z,1.17
2017-07-01T03:31:13.985Z,1.20
2017-07-01T03:33:47.731Z,0.93
2017-07-01T03:36:23.487Z,1.00
2017-07-01T03:39:03.610Z,1.00
2017-07-01T03:41:43.718Z,1.12
2017-07-01T03:47:26.660Z,0.90
2017-07-01T03:49:55.719Z,0.88
2017-07-01T03:52:23.995Z,1.00
2017-07-01T03:54:52.987Z,1.10
2017-07-01T03:57:21.279Z,1.17
2017-07-01T03:59:52.330Z,1.15
2017-07-01T04:02:20.621Z,0.90
2017-07-01T04:04:48.897Z,0.93
2017-07-01T04:07:17.166Z,0.90
2017-07-01T04:09:45.464Z,1.00
2017-07-01T04:12:13.735Z,0.98
2017-07-01T04:14:42.019Z,1.10
2017-07-01T04:17:10.290Z,1.10
2017-07-01T04:20:09.215Z,1.30
2017-07-01T04:22:43.171Z,0.90
2017-07-01T04:25:11.458Z,1.08
2017-07-01T04:27:41.238Z,1.00
2017-07-01T04:30:09.550Z,0.80
2017-07-01T04:32:37.823Z,1.20
2017-07-01T04:35:06.114Z,0.95
2017-07-01T04:37:34.383Z,1.00
2017-07-01T04:40:07.248Z,1.00
2017-07-01T04:42:37.026Z,1.10
2017-07-01T04:45:22.002Z,1.02
2017-07-01T04:47:53.698Z,0.90
2017-07-01T04:50:27.878Z,1.00
2017-07-01T04:52:56.140Z,1.00
2017-07-01T04:55:24.404Z,1.02
2017-07-01T04:57:59.618Z,0.90
2017-07-01T05:00:35.370Z,1.10
2017-07-01T05:03:03.658Z,0.90
2017-07-01T05:05:43.873Z,1.10
2017-07-01T05:08:27.494Z,0.90
2017-07-01T05:10:55.770Z,1.00
2017-07-01T05:13:24.062Z,1.00
2017-07-01T05:15:54.829Z,0.90
2017-07-01T05:18:23.110Z,0.90
2017-07-01T05:20:55.291Z,1.05
2017-07-01T05:23:48.438Z,0.88
2017-07-01T05:26:16.709Z,0.90
2017-07-01T05:28:45.014Z,1.12
2017-07-01T05:31:26.981Z,1.00
2017-07-01T05:34:02.938Z,1.00
2017-07-01T05:36:37.832Z,1.02
2017-07-01T05:39:17.504Z,0.90
2017-07-01T05:41:50.172Z,1.08
2017-07-01T05:44:19.249Z,0.90
2017-07-01T05:46:47.523Z,1.02
2017-07-01T05:49:15.807Z,1.00
2017-07-01T05:51:47.795Z,1.00
2017-07-01T05:54:31.711Z,1.10
2017-07-01T05:56:59.994Z,0.80
2017-07-01T05:59:43.623Z,0.90
2017-07-01T06:02:23.439Z,0.90
2017-07-01T06:04:51.725Z,0.80
2017-07-01T06:07:19.987Z,1.33
2017-07-01T06:10:18.031Z,0.90
2017-07-01T06:12:58.681Z,1.20
2017-07-01T06:15:51.232Z,0.90
2017-07-01T06:18:43.970Z,1.05
2017-07-01T06:21:35.868Z,0.90
2017-07-01T06:24:04.999Z,0.85
2017-07-01T06:26:41.819Z,0.90
2017-07-01T06:32:42.923Z,0.98
2017-07-01T06:35:31.580Z,0.85
2017-07-01T06:38:17.632Z,0.80
2017-07-01T06:41:01.643Z,0.98
2017-07-01T06:43:29.932Z,1.20
2017-07-01T06:45:58.965Z,0.98
2017-07-01T06:48:30.119Z,1.10
2017-07-01T06:50:58.446Z,1.00
2017-07-01T06:53:26.722Z,0.90
2017-07-01T06:55:55.775Z,1.00
2017-07-01T06:58:24.047Z,0.90
2017-07-01T07:00:52.337Z,0.90
2017-07-01T07:03:20.599Z,1.12
2017-07-01T07:05:48.879Z,0.93
2017-07-01T07:08:17.160Z,0.90
2017-07-01T07:10:45.442Z,0.90
2017-07-01T07:13:13.714Z,0.90
2017-07-01T07:15:41.998Z,1.15
2017-07-01T07:18:10.266Z,1.10
2017-07-01T07:20:38.532Z,1.00
2017-07-01T07:23:06.840Z,1.00
2017-07-01T07:25:35.110Z,1.00
2017-07-01T07:28:03.392Z,0.90
2017-07-01T07:30:31.670Z,0.85
2017-07-01T07:32:59.946Z,1.02
2017-07-01T07:35:28.206Z,1.00
2017-07-01T07:37:56.488Z,1.10
2017-07-01T07:40:24.527Z,0.95
2017-07-01T07:42:52.807Z,1.10
2017-07-01T07:45:21.180Z,1.00
2017-07-01T07:47:49.443Z,0.90
2017-07-01T07:50:17.731Z,1.20
2017-07-01T07:52:46.007Z,1.17
2017-07-01T07:55:14.297Z,1.30
2017-07-01T07:57:42.560Z,0.98
2017-07-01T08:00:10.847Z,1.20
2017-07-01T08:02:39.118Z,1.23
2017-07-01T08:05:07.399Z,1.02
2017-07-01T08:07:35.667Z,1.20
2017-07-01T08:10:03.956Z,1.10
2017-07-01T08:12:32.225Z,0.98
2017-07-01T08:15:00.528Z,0.90
2017-07-01T08:17:28.794Z,1.10
2017-07-01T08:19:57.067Z,1.05
2017-07-01T08:22:25.355Z,0.90
2017-07-01T08:24:53.631Z,1.48
2017-07-01T08:27:21.940Z,1.10
2017-07-01T08:29:50.203Z,0.90
2017-07-01T08:32:18.492Z,1.02
2017-07-01T08:34:46.765Z,1.10
2017-07-01T08:37:15.046Z,1.10
2017-07-01T08:39:43.318Z,1.10
2017-07-01T08:42:11.628Z,0.90
2017-07-01T08:44:39.906Z,1.10
2017-07-01T08:47:08.180Z,1.10
2017-07-01T08:49:36.459Z,1.00
2017-07-01T08:52:04.739Z,0.90
2017-07-01T08:54:33.040Z,0.80
2017-07-01T08:57:01.294Z,0.90
2017-07-01T08:59:29.583Z,1.00
2017-07-01T09:01:57.847Z,0.93
2017-07-01T09:04:26.147Z,1.10
2017-07-01T09:06:54.411Z,1.05
2017-07-01T09:09:22.697Z,1.02
2017-07-01T09:11:50.998Z,1.40
2017-07-01T09:14:19.272Z,1.30
2017-07-01T09:16:47.563Z,0.90
2017-07-01T09:19:15.826Z,1.25
2017-07-01T09:21:44.118Z,1.05
2017-07-01T09:24:12.392Z,1.48
2017-07-01T09:26:40.671Z,1.10
2017-07-01T09:29:08.951Z,1.12
2017-07-01T09:31:37.271Z,1.10
2017-07-01T09:34:05.549Z,1.15
2017-07-01T09:36:33.852Z,1.12
2017-07-01T09:39:02.137Z,1.00
2017-07-01T09:41:30.424Z,1.00
2017-07-01T09:43:58.736Z,1.15
2017-07-01T09:46:27.000Z,1.10
2017-07-01T09:48:55.295Z,1.30
2017-07-01T09:51:24.331Z,1.30
2017-07-01T09:53:52.619Z,1.15
2017-07-01T09:56:20.900Z,0.93
2017-07-01T09:58:49.199Z,1.05
2017-07-01T10:01:17.476Z,0.90
2017-07-01T10:03:45.786Z,1.30
2017-07-01T10:06:14.819Z,1.27
2017-07-01T10:08:43.095Z,1.00
2017-07-01T10:11:11.375Z,0.90
2017-07-01T10:13:39.649Z,1.10
2017-07-01T10:16:07.939Z,1.15
2017-07-01T10:18:36.216Z,1.10
2017-07-01T10:21:04.513Z,1.00
2017-07-01T10:23:32.791Z,1.10
2017-07-01T10:26:01.088Z,1.05
2017-07-01T10:28:30.126Z,1.00
2017-07-01T10:30:58.428Z,1.00
2017-07-01T10:33:26.699Z,1.02
2017-07-01T10:35:54.962Z,0.90
2017-07-01T10:38:23.253Z,0.90
2017-07-01T10:40:51.527Z,1.00
2017-07-01T10:43:19.815Z,1.02
2017-07-01T10:45:48.092Z,1.25
2017-07-01T10:48:16.420Z,1.12
2017-07-01T10:50:44.711Z,1.20
2017-07-01T10:53:12.996Z,1.00
2017-07-01T10:55:41.268Z,1.20
2017-07-01T10:58:09.559Z,1.52
2017-07-01T11:00:37.835Z,1.05
2017-07-01T11:03:06.146Z,1.20
2017-07-01T11:05:34.414Z,1.00
2017-07-01T11:08:02.684Z,1.20
2017-07-01T11:10:30.977Z,0.90
2017-07-01T11:12:59.253Z,1.10
2017-07-01T11:15:27.530Z,1.00
2017-07-01T11:17:55.807Z,1.17
2017-07-01T11:20:24.109Z,1.00
2017-07-01T11:22:52.372Z,1.08
2017-07-01T11:25:20.659Z,1.10
2017-07-01T11:27:49.707Z,1.00
2017-07-01T11:30:18.008Z,1.00
2017-07-01T11:32:46.291Z,1.30
2017-07-01T11:35:14.558Z,0.90
2017-07-01T11:37:42.858Z,0.90
2017-07-01T11:40:11.123Z,1.23
2017-07-01T11:42:39.424Z,0.90
2017-07-01T11:45:08.456Z,1.00
2017-07-01T11:47:36.751Z,1.80
2017-07-01T11:50:05.030Z,1.10
2017-07-01T11:52:33.317Z,1.05
2017-07-01T11:55:01.587Z,1.08
2017-07-01T11:57:29.930Z,1.50
2017-07-01T11:59:58.207Z,1.00
2017-07-01T12:02:26.511Z,1.00
2017-07-01T12:04:54.788Z,1.15
2017-07-01T12:07:23.060Z,1.10
2017-07-01T12:09:51.338Z,1.00
2017-07-01T12:12:19.611Z,1.33
2017-07-01T12:14:47.907Z,1.17
2017-07-01T12:17:16.166Z,1.00
2017-07-01T12:19:44.467Z,1.25
2017-07-01T12:22:12.739Z,1.35
2017-07-01T12:24:41.056Z,1.20
2017-07-01T12:27:10.096Z,1.65
2017-07-01T12:29:38.375Z,1.15
2017-07-01T12:32:06.669Z,1.10
2017-07-01T12:34:34.927Z,1.25
2017-07-01T12:37:03.230Z,1.27
2017-07-01T12:39:32.028Z,1.15
2017-07-01T12:42:00.457Z,1.20
2017-07-01T12:44:29.071Z,1.10
2017-07-01T12:46:57.364Z,1.20
2017-07-01T12:49:25.647Z,1.60
2017-07-01T12:51:53.963Z,1.20
2017-07-01T12:54:22.255Z,1.42
2017-07-01T12:56:50.522Z,1.30
2017-07-01T12:59:18.825Z,1.50
2017-07-01T13:01:47.128Z,1.50
2017-07-01T13:04:15.420Z,1.23
2017-07-01T13:06:44.456Z,1.00
2017-07-01T13:09:12.746Z,1.30
2017-07-01T13:11:41.014Z,1.30
2017-07-01T13:14:09.314Z,1.50
2017-07-01T13:16:37.601Z,1.35
2017-07-01T13:19:05.891Z,1.45
2017-07-01T13:21:34.168Z,1.30
2017-07-01T13:24:02.480Z,1.30
2017-07-01T13:26:30.764Z,1.08
2017-07-01T13:28:59.043Z,1.30
2017-07-01T13:31:27.373Z,1.27
2017-07-01T13:33:55.652Z,1.30
2017-07-01T13:36:23.952Z,1.00
2017-07-01T13:38:52.248Z,1.20
2017-07-01T13:41:20.537Z,1.20
2017-07-01T13:43:48.804Z,1.10
2017-07-01T13:46:17.109Z,1.05
2017-07-01T13:48:45.383Z,1.23
2017-07-01T13:51:13.696Z,1.58
2017-07-01T13:53:41.974Z,1.00
2017-07-01T13:56:10.248Z,1.10
2017-07-01T13:58:38.528Z,1.20
2017-07-01T14:01:08.330Z,1.35
2017-07-01T14:03:36.634Z,1.17
2017-07-01T14:06:04.918Z,1.10
2017-07-01T14:08:33.219Z,1.20
2017-07-01T14:11:01.504Z,1.05
2017-07-01T14:13:29.830Z,1.05
2017-07-01T14:15:58.112Z,1.00
2017-07-01T14:18:26.398Z,1.30
2017-07-01T14:20:55.465Z,1.30
2017-07-01T14:23:23.743Z,1.33
2017-07-01T14:25:52.032Z,1.25
2017-07-01T14:28:20.295Z,1.23
2017-07-01T14:30:48.591Z,1.20
2017-07-01T14:33:16.868Z,1.40
2017-07-01T14:35:45.148Z,1.00
2017-07-01T14:38:14.212Z,1.00
2017-07-01T14:40:42.491Z,1.10
2017-07-01T14:43:10.786Z,1.20
2017-07-01T14:45:39.058Z,1.42
2017-07-01T14:48:07.319Z,1.15
2017-07-01T14:50:35.617Z,1.20
2017-07-01T14:53:03.883Z,1.30
2017-07-01T14:55:32.167Z,1.30
2017-07-01T14:58:00.436Z,1.20
2017-07-01T15:00:28.727Z,1.10
2017-07-01T15:02:57.004Z,1.33
2017-07-01T15:05:25.315Z,1.37
2017-07-01T15:07:53.591Z,0.90
2017-07-01T15:10:21.867Z,1.25
2017-07-01T15:12:50.275Z,1.30
2017-07-01T15:15:18.551Z,1.15
2017-07-01T15:17:46.852Z,1.33
2017-07-01T15:20:15.127Z,1.10
2017-07-01T15:22:43.417Z,1.33
2017-07-01T15:25:11.687Z,1.87
2017-07-01T15:27:39.989Z,2.37
2017-07-01T15:30:08.261Z,1.80
2017-07-01T15:32:36.543Z,1.40
2017-07-01T15:35:04.844Z,1.42
2017-07-01T15:37:33.110Z,1.00
2017-07-01T15:40:02.188Z,1.10
2017-07-01T15:42:30.460Z,1.65
2017-07-01T15:44:58.897Z,1.80
2017-07-01T15:47:27.173Z,1.20
2017-07-01T15:49:55.464Z,1.30
2017-07-01T15:52:23.743Z,1.42
2017-07-01T15:54:52.051Z,1.20
2017-07-01T15:57:20.324Z,1.42
2017-07-01T15:59:48.601Z,1.33
2017-07-01T16:02:16.893Z,1.20
2017-07-01T16:04:45.169Z,1.05
2017-07-01T16:07:13.446Z,1.20
2017-07-01T16:09:41.716Z,1.10
2017-07-01T16:12:10.003Z,1.17
2017-07-01T16:14:38.275Z,1.10
2017-07-01T16:17:06.603Z,1.00
2017-07-01T16:19:35.603Z,1.20
2017-07-01T16:22:03.884Z,1.30
2017-07-01T16:24:32.162Z,1.30
2017-07-01T16:27:00.454Z,1.00
2017-07-01T16:29:28.721Z,1.50
2017-07-01T16:31:57.009Z,1.35
2017-07-01T16:34:25.283Z,1.05
2017-07-01T16:36:53.559Z,1.30
2017-07-01T16:39:21.834Z,1.25
2017-07-01T16:41:50.117Z,1.10
2017-07-01T16:44:18.401Z,1.00
2017-07-01T16:46:46.671Z,1.40
2017-07-01T16:49:14.980Z,1.20
2017-07-01T16:51:44.011Z,1.10
2017-07-01T16:54:12.306Z,1.20
2017-07-01T16:56:40.593Z,1.65
2017-07-01T16:59:08.896Z,1.20
2017-07-01T17:01:37.172Z,1.08
2017-07-01T17:04:05.455Z,1.30
2017-07-01T17:06:33.749Z,1.02
2017-07-01T17:09:02.025Z,1.23
2017-07-01T17:11:30.312Z,1.30
2017-07-01T17:13:58.586Z,1.40
2017-07-01T17:16:26.877Z,1.30
2017-07-01T17:18:55.143Z,1.40
2017-07-01T17:21:23.431Z,1.50
2017-07-01T17:23:51.692Z,1.30
2017-07-01T17:26:19.962Z,1.90
2017-07-01T17:28:48.257Z,1.75
2017-07-01T17:31:16.518Z,1.60
2017-07-01T17:33:45.571Z,1.35
2017-07-01T17:36:13.842Z,1.73
2017-07-01T17:38:42.123Z,1.30
2017-07-01T17:41:10.403Z,1.40
2017-07-01T17:43:38.709Z,1.40
2017-07-01T17:46:06.971Z,1.30
2017-07-01T17:48:35.276Z,1.30
2017-07-01T17:51:04.302Z,1.27
2017-07-01T17:53:32.791Z,1.40
2017-07-01T17:56:01.075Z,1.35
2017-07-01T17:58:29.346Z,1.73
2017-07-01T18:00:57.627Z,1.33
2017-07-01T18:03:25.903Z,1.40
2017-07-01T18:05:54.191Z,1.40
2017-07-01T18:08:22.464Z,1.40
2017-07-01T18:10:50.750Z,1.42
2017-07-01T18:13:19.037Z,1.60
2017-07-01T18:15:47.339Z,1.55
2017-07-01T18:18:16.381Z,1.45
2017-07-01T18:20:44.646Z,1.42
2017-07-01T18:23:12.947Z,1.83
2017-07-01T18:25:41.221Z,1.60
2017-07-01T18:28:09.491Z,1.60
2017-07-01T18:30:37.783Z,1.55
2017-07-01T18:33:06.079Z,1.55
2017-07-01T18:35:34.355Z,1.50
2017-07-01T18:38:02.634Z,1.92
2017-07-01T18:40:31.675Z,2.30
2017-07-01T18:42:59.997Z,2.00
2017-07-01T18:45:28.260Z,1.87
2017-07-01T18:47:56.533Z,2.60
2017-07-01T18:50:24.819Z,2.83
2017-07-01T18:52:53.079Z,3.05
2017-07-01T18:55:21.359Z,3.65
2017-07-01T18:57:49.629Z,3.35
2017-07-01T19:00:17.918Z,3.50
2017-07-01T19:02:46.221Z,2.53
2017-07-01T19:05:14.511Z,2.25
2017-07-01T19:07:43.543Z,2.00
2017-07-01T19:10:11.843Z,1.62
2017-07-01T19:12:40.111Z,1.42
2017-07-01T19:15:08.379Z,1.70
2017-07-01T19:17:36.674Z,1.40
2017-07-01T19:20:04.932Z,1.60
2017-07-01T19:22:33.227Z,1.65
2017-07-01T19:25:01.489Z,1.45
2017-07-01T19:27:29.772Z,1.95
2017-07-01T19:29:58.045Z,2.10
2017-07-01T19:32:26.333Z,2.62
2017-07-01T19:34:54.619Z,3.60
2017-07-01T19:37:22.919Z,5.35
2017-07-01T19:39:51.191Z,6.55
2017-07-01T19:42:19.474Z,7.57
2017-07-01T19:44:48.534Z,6.30
2017-07-01T19:47:16.930Z,4.87
2017-07-01T19:49:45.199Z,4.03
2017-07-01T19:52:13.487Z,2.40
2017-07-01T19:54:41.764Z,2.03
2017-07-01T19:57:10.032Z,1.75
2017-07-01T19:59:38.314Z,2.20
2017-07-01T20:02:06.602Z,2.40
2017-07-01T20:04:34.890Z,3.70
2017-07-01T20:07:03.151Z,2.95
2017-07-01T20:09:31.435Z,3.25
2017-07-01T20:11:59.712Z,2.72
2017-07-01T20:14:28.016Z,1.90
2017-07-01T20:16:57.044Z,1.60
2017-07-01T20:19:25.332Z,1.70
2017-07-01T20:21:53.594Z,1.48
2017-07-01T20:24:21.875Z,1.30
2017-07-01T20:26:50.155Z,1.67
2017-07-01T20:29:19.591Z,1.45
2017-07-01T20:31:48.139Z,1.20
2017-07-01T20:34:16.402Z,1.48
2017-07-01T20:36:44.703Z,1.40
2017-07-01T20:39:12.975Z,1.67
2017-07-01T20:41:41.251Z,1.20
2017-07-01T20:44:09.519Z,1.27
2017-07-01T20:46:37.815Z,1.52
2017-07-01T20:49:06.088Z,1.30
2017-07-01T20:51:34.358Z,1.40
2017-07-01T20:54:02.639Z,1.40
2017-07-01T20:56:30.913Z,1.30
2017-07-01T20:58:59.195Z,1.48
2017-07-01T21:01:27.469Z,1.40
2017-07-01T21:03:55.774Z,1.40
2017-07-01T21:06:24.048Z,1.35
2017-07-01T21:08:52.362Z,1.27
2017-07-01T21:11:20.630Z,1.80
2017-07-01T21:13:48.915Z,1.50
2017-07-01T21:16:17.196Z,1.30
2017-07-01T21:18:45.499Z,1.42
2017-07-01T21:21:13.774Z,1.70
2017-07-01T21:23:42.799Z,1.30
2017-07-01T21:26:11.127Z,1.15
2017-07-01T21:28:39.396Z,1.30
2017-07-01T21:31:07.676Z,1.37
2017-07-01T21:33:35.960Z,1.20
2017-07-01T21:36:04.253Z,1.50
2017-07-01T21:38:33.302Z,1.37
2017-07-01T21:41:01.609Z,1.30
2017-07-01T21:43:30.643Z,1.45
2017-07-01T21:45:58.915Z,1.27
2017-07-01T21:48:27.200Z,1.58
2017-07-01T21:50:55.467Z,1.40
2017-07-01T21:53:23.759Z,1.12
2017-07-01T21:55:52.022Z,1.30
2017-07-01T21:58:20.303Z,1.25
2017-07-01T22:00:48.581Z,1.40
2017-07-01T22:03:16.879Z,1.77
2017-07-01T22:05:45.142Z,1.35
2017-07-01T22:08:13.439Z,1.35
2017-07-01T22:10:41.700Z,1.25
2017-07-01T22:13:09.996Z,2.55
2017-07-01T22:15:38.275Z,2.35
2017-07-01T22:18:06.547Z,1.75
2017-07-01T22:20:34.843Z,1.37
2017-07-01T22:23:03.126Z,1.40
2017-07-01T22:25:31.416Z,1.60
2017-07-01T22:27:59.683Z,1.30
2017-07-01T22:30:27.967Z,1.30
2017-07-01T22:32:56.279Z,1.12
2017-07-01T22:35:24.523Z,1.35
2017-07-01T22:37:52.795Z,1.17
2017-07-01T22:40:21.116Z,1.15
2017-07-01T22:42:49.384Z,1.00
2017-07-01T22:45:17.671Z,1.27
2017-07-01T22:47:45.948Z,1.10
2017-07-01T22:50:14.211Z,1.27
2017-07-01T22:52:42.507Z,1.27
2017-07-01T22:55:10.782Z,1.40
2017-07-01T22:57:39.068Z,1.25
2017-07-01T23:00:07.339Z,1.37
2017-07-01T23:02:35.619Z,1.35
2017-07-01T23:05:03.896Z,1.75
2017-07-01T23:07:32.187Z,1.27
2017-07-01T23:10:00.477Z,1.10
2017-07-01T23:12:28.763Z,1.30
2017-07-01T23:14:57.043Z,1.45
2017-07-01T23:17:25.340Z,1.30
2017-07-01T23:19:54.371Z,1.30
2017-07-01T23:22:22.645Z,1.40
2017-07-01T23:24:50.931Z,1.20
2017-07-01T23:27:19.222Z,1.23
2017-07-01T23:29:47.515Z,1.40
2017-07-01T23:32:15.782Z,1.45
2017-07-01T23:34:44.075Z,1.30
2017-07-01T23:37:12.347Z,1.48
2017-07-01T23:39:40.631Z,1.20
2017-07-01T23:42:08.899Z,1.42
2017-07-01T23:44:37.223Z,1.50
2017-07-01T23:47:06.262Z,1.30
2017-07-01T23:49:34.527Z,1.60
2017-07-01T23:52:02.817Z,1.33
2017-07-01T23:54:31.087Z,1.55
2017-07-01T23:56:59.381Z,1.30
2017-07-01T23:59:27.647Z,1.30
